Pagina principale
METAR-TAF:

METAR-TAF

Aeroporti :

Aeroporto di Rivolto

Udine, Italia

latitudine: 45-59N, longitudine: 013-02E, altezza: 51 m

Osservazione

Il bollettino è stato emesso 1 ora e 5 minuti fa, alle 11:55 UTC
Temperature 23°C
Umidità 53%
Pressione 1014 hPa
Visibilità 10 km o più
Nubi sparse ad un'altezza di 2800 ft

METAR: LIPI 231155Z /////KT 9999 SCT028 23/13 Q1014 RMK SCT VIS MIN 9999 WIND THR06 VRB03KT WIND THR24 VRB03KT BLU

Ora: 15:00 (13:00 UTC)

Previsione

Il bollettino è stato emesso 2 ore e 0 minuti fa, alle 11:00 UTC
Previsione valida dal 23 alle 12 UTC al 23 alle 21 UTC
Vento 5 kt da direzioni variabili
Visibilità 10 km o più
Nubi sparse ad un'altezza di 3000 ft
Nubi sparse ad un'altezza di 7000 ft
Probabilità 40% :
Temporaneamente
dal 23 alle 14 UTC al 23 alle 20 UTC
Visibilità: 7000 m
Poco nuvoloso ad un'altezza di 2500 ft, Cumulonembo.
temporale, pioggia

TAF: LIPI 231100Z 2312/2321 VRB05KT 9999 SCT030 SCT070 PROB40 TEMPO 2314/2320 7000 TSRA FEW025CB

Osservazioni e previsioni meteorologiche di più di 4000 aeroporti (messaggi METAR e TAF).

Le stazioni disponibili sono rappresentate dai dischi gialli e rossi sulla carta.

Puntare il mouse per vedere il nome della stazione.

Clicca sopra per visualizzare le osservazioni e previsioni meteorologiche.

Per cambiare la mappa : fare clic sui pulsanti verdi con una croce nera per ingrandire, il pulsante verde con un trattino per diminuire, o sulla freccia verde per le mappe adiacenti.


METAR-TAF: